sensor_id;sensor_type;location;lat;lon;timestamp;pressure;altitude;pressure_sealevel;temperature;humidity
62592;BME280;48659;41.622;2.276;2023-04-19T00:01:55;99880.67;;;12.84;46.39
62592;BME280;48659;41.622;2.276;2023-04-19T00:04:22;99881.49;;;12.41;47.57
62592;BME280;48659;41.622;2.276;2023-04-19T00:06:49;99879.43;;;12.60;46.93
62592;BME280;48659;41.622;2.276;2023-04-19T00:09:17;99873.92;;;13.09;45.67
62592;BME280;48659;41.622;2.276;2023-04-19T00:11:44;99876.55;;;12.04;46.43
62592;BME280;48659;41.622;2.276;2023-04-19T00:14:12;99879.09;;;11.92;47.58
62592;BME280;48659;41.622;2.276;2023-04-19T00:16:40;99874.20;;;12.56;46.34
62592;BME280;48659;41.622;2.276;2023-04-19T00:19:07;99873.84;;;12.62;46.59
62592;BME280;48659;41.622;2.276;2023-04-19T00:21:35;99870.53;;;12.45;46.78
62592;BME280;48659;41.622;2.276;2023-04-19T00:24:03;99868.14;;;12.39;47.03
62592;BME280;48659;41.622;2.276;2023-04-19T00:26:30;99865.33;;;12.76;46.39
62592;BME280;48659;41.622;2.276;2023-04-19T00:28:58;99866.13;;;12.36;46.94
62592;BME280;48659;41.622;2.276;2023-04-19T00:31:25;99865.94;;;11.45;48.49
62592;BME280;48659;41.622;2.276;2023-04-19T00:33:52;99865.77;;;11.99;47.62
62592;BME280;48659;41.622;2.276;2023-04-19T00:36:20;99860.93;;;12.81;45.66
62592;BME280;48659;41.622;2.276;2023-04-19T00:38:47;99862.09;;;11.85;47.16
62592;BME280;48659;41.622;2.276;2023-04-19T00:41:15;99868.36;;;9.82;51.96
62592;BME280;48659;41.622;2.276;2023-04-19T00:43:42;99863.58;;;9.48;51.95
62592;BME280;48659;41.622;2.276;2023-04-19T00:46:09;99864.18;;;10.12;52.23
62592;BME280;48659;41.622;2.276;2023-04-19T00:48:36;99855.13;;;10.95;49.54
62592;BME280;48659;41.622;2.276;2023-04-19T00:51:04;99865.71;;;9.52;51.60
62592;BME280;48659;41.622;2.276;2023-04-19T00:53:33;99859.05;;;10.76;50.95
62592;BME280;48659;41.622;2.276;2023-04-19T00:56:01;99855.48;;;11.19;48.69
62592;BME280;48659;41.622;2.276;2023-04-19T00:58:30;99854.18;;;12.01;47.57
62592;BME280;48659;41.622;2.276;2023-04-19T01:00:58;99855.56;;;11.59;47.44
62592;BME280;48659;41.622;2.276;2023-04-19T01:03:25;99849.46;;;10.62;48.99
62592;BME280;48659;41.622;2.276;2023-04-19T01:05:52;99848.87;;;11.08;48.27
62592;BME280;48659;41.622;2.276;2023-04-19T01:08:20;99846.90;;;10.72;49.01
62592;BME280;48659;41.622;2.276;2023-04-19T01:10:47;99846.73;;;11.77;47.15
62592;BME280;48659;41.622;2.276;2023-04-19T01:16:39;99838.28;;;10.77;46.72
62592;BME280;48659;41.622;2.276;2023-04-19T01:19:07;99833.55;;;12.83;44.83
62592;BME280;48659;41.622;2.276;2023-04-19T01:21:36;99837.50;;;10.46;49.69
62592;BME280;48659;41.622;2.276;2023-04-19T01:24:04;99835.36;;;11.56;47.27
62592;BME280;48659;41.622;2.276;2023-04-19T01:26:32;99832.29;;;12.00;46.92
62592;BME280;48659;41.622;2.276;2023-04-19T01:28:59;99833.03;;;11.64;46.72
62592;BME280;48659;41.622;2.276;2023-04-19T01:31:26;99831.24;;;11.70;47.63
62592;BME280;48659;41.622;2.276;2023-04-19T01:33:54;99829.49;;;12.09;46.03
62592;BME280;48659;41.622;2.276;2023-04-19T01:36:21;99829.41;;;10.28;49.90
62592;BME280;48659;41.622;2.276;2023-04-19T01:38:49;99832.02;;;9.52;50.60
62592;BME280;48659;41.622;2.276;2023-04-19T01:41:16;99839.60;;;7.05;58.56
62592;BME280;48659;41.622;2.276;2023-04-19T01:43:44;99836.22;;;7.83;56.20
62592;BME280;48659;41.622;2.276;2023-04-19T01:46:12;99831.31;;;8.75;54.52
62592;BME280;48659;41.622;2.276;2023-04-19T01:48:40;99830.76;;;10.07;51.93
62592;BME280;48659;41.622;2.276;2023-04-19T01:51:08;99826.10;;;10.37;50.22
62592;BME280;48659;41.622;2.276;2023-04-19T01:53:35;99824.96;;;10.89;50.14
62592;BME280;48659;41.622;2.276;2023-04-19T01:56:03;99823.48;;;11.23;48.96
62592;BME280;48659;41.622;2.276;2023-04-19T01:58:31;99831.44;;;9.06;52.88
62592;BME280;48659;41.622;2.276;2023-04-19T02:00:58;99829.31;;;9.80;53.14
62592;BME280;48659;41.622;2.276;2023-04-19T02:03:26;99823.45;;;10.99;49.76
62592;BME280;48659;41.622;2.276;2023-04-19T02:05:54;99818.57;;;10.56;49.61
62592;BME280;48659;41.622;2.276;2023-04-19T02:08:21;99816.03;;;11.38;47.81
62592;BME280;48659;41.622;2.276;2023-04-19T02:10:49;99810.19;;;11.36;46.43
62592;BME280;48659;41.622;2.276;2023-04-19T02:13:17;99811.66;;;11.78;47.01
62592;BME280;48659;41.622;2.276;2023-04-19T02:15:44;99810.63;;;11.03;47.81
62592;BME280;48659;41.622;2.276;2023-04-19T02:18:11;99808.24;;;11.03;48.01
62592;BME280;48659;41.622;2.276;2023-04-19T02:20:52;99812.65;;;9.84;49.60
62592;BME280;48659;41.622;2.276;2023-04-19T02:23:20;99804.37;;;10.49;48.89
62592;BME280;48659;41.622;2.276;2023-04-19T02:25:47;99806.38;;;10.77;48.31
62592;BME280;48659;41.622;2.276;2023-04-19T02:28:15;99807.54;;;10.92;48.14
62592;BME280;48659;41.622;2.276;2023-04-19T02:30:43;99805.23;;;11.61;46.84
62592;BME280;48659;41.622;2.276;2023-04-19T02:33:10;99804.37;;;11.19;47.59
62592;BME280;48659;41.622;2.276;2023-04-19T02:35:37;99797.96;;;11.21;47.22
62592;BME280;48659;41.622;2.276;2023-04-19T02:38:05;99795.40;;;11.18;47.40
62592;BME280;48659;41.622;2.276;2023-04-19T02:40:32;99792.03;;;11.38;47.07
62592;BME280;48659;41.622;2.276;2023-04-19T02:43:00;99795.08;;;11.12;47.58
62592;BME280;48659;41.622;2.276;2023-04-19T02:45:28;99793.38;;;10.81;47.96
62592;BME280;48659;41.622;2.276;2023-04-19T02:47:55;99792.25;;;11.04;47.32
62592;BME280;48659;41.622;2.276;2023-04-19T02:50:23;99786.82;;;11.01;46.70
62592;BME280;48659;41.622;2.276;2023-04-19T02:52:50;99786.67;;;11.43;46.13
62592;BME280;48659;41.622;2.276;2023-04-19T02:55:18;99783.94;;;11.07;47.33
62592;BME280;48659;41.622;2.276;2023-04-19T02:57:45;99786.04;;;10.49;47.39
62592;BME280;48659;41.622;2.276;2023-04-19T03:00:13;99776.21;;;10.27;47.85
62592;BME280;48659;41.622;2.276;2023-04-19T03:02:41;99778.63;;;10.52;48.64
62592;BME280;48659;41.622;2.276;2023-04-19T03:05:09;99778.44;;;11.03;47.66
62592;BME280;48659;41.622;2.276;2023-04-19T03:07:36;99779.21;;;10.68;47.83
62592;BME280;48659;41.622;2.276;2023-04-19T03:10:05;99776.06;;;11.25;46.48
62592;BME280;48659;41.622;2.276;2023-04-19T03:12:33;99776.49;;;11.29;46.69
62592;BME280;48659;41.622;2.276;2023-04-19T03:15:00;99774.82;;;11.66;46.11
62592;BME280;48659;41.622;2.276;2023-04-19T03:17:28;99773.24;;;11.32;46.51
62592;BME280;48659;41.622;2.276;2023-04-19T03:19:55;99773.35;;;10.94;46.68
62592;BME280;48659;41.622;2.276;2023-04-19T03:22:23;99774.94;;;11.10;46.25
62592;BME280;48659;41.622;2.276;2023-04-19T03:24:49;99779.73;;;10.50;46.37
62592;BME280;48659;41.622;2.276;2023-04-19T03:27:17;99780.54;;;11.49;46.04
62592;BME280;48659;41.622;2.276;2023-04-19T03:29:49;99781.39;;;10.37;46.08
62592;BME280;48659;41.622;2.276;2023-04-19T03:32:17;99779.86;;;10.64;46.34
62592;BME280;48659;41.622;2.276;2023-04-19T03:34:45;99781.21;;;11.28;44.91
62592;BME280;48659;41.622;2.276;2023-04-19T03:37:13;99781.50;;;11.56;45.15
62592;BME280;48659;41.622;2.276;2023-04-19T03:39:41;99785.15;;;11.33;45.58
62592;BME280;48659;41.622;2.276;2023-04-19T03:42:08;99783.86;;;10.95;45.96
62592;BME280;48659;41.622;2.276;2023-04-19T03:44:36;99780.82;;;10.93;45.99
62592;BME280;48659;41.622;2.276;2023-04-19T03:47:03;99778.62;;;10.17;47.19
62592;BME280;48659;41.622;2.276;2023-04-19T03:49:30;99788.96;;;8.38;51.60
62592;BME280;48659;41.622;2.276;2023-04-19T03:51:57;99780.41;;;10.36;47.50
62592;BME280;48659;41.622;2.276;2023-04-19T03:54:24;99785.58;;;11.00;46.74
62592;BME280;48659;41.622;2.276;2023-04-19T03:56:51;99786.00;;;10.58;46.48
62592;BME280;48659;41.622;2.276;2023-04-19T03:59:19;99783.02;;;10.63;46.48
62592;BME280;48659;41.622;2.276;2023-04-19T04:01:46;99793.27;;;8.64;50.34
62592;BME280;48659;41.622;2.276;2023-04-19T04:04:13;99796.71;;;7.26;54.04
62592;BME280;48659;41.622;2.276;2023-04-19T04:06:41;99799.14;;;9.57;49.77
62592;BME280;48659;41.622;2.276;2023-04-19T04:09:09;99796.91;;;10.19;48.46
62592;BME280;48659;41.622;2.276;2023-04-19T04:11:36;99791.25;;;10.41;48.01
62592;BME280;48659;41.622;2.276;2023-04-19T04:14:05;99795.32;;;9.11;49.61
62592;BME280;48659;41.622;2.276;2023-04-19T04:16:32;99791.13;;;10.25;47.51
62592;BME280;48659;41.622;2.276;2023-04-19T04:18:59;99796.31;;;8.67;50.72
62592;BME280;48659;41.622;2.276;2023-04-19T04:21:26;99797.97;;;9.75;48.50
62592;BME280;48659;41.622;2.276;2023-04-19T04:23:53;99795.10;;;9.98;47.47
62592;BME280;48659;41.622;2.276;2023-04-19T04:26:21;99789.22;;;10.78;46.97
62592;BME280;48659;41.622;2.276;2023-04-19T04:28:48;99788.77;;;10.27;46.32
62592;BME280;48659;41.622;2.276;2023-04-19T04:31:15;99798.74;;;8.28;50.81
62592;BME280;48659;41.622;2.276;2023-04-19T04:33:44;99794.32;;;7.84;51.80
62592;BME280;48659;41.622;2.276;2023-04-19T04:36:11;99795.34;;;9.64;49.32
62592;BME280;48659;41.622;2.276;2023-04-19T04:38:39;99796.50;;;9.82;48.47
62592;BME280;48659;41.622;2.276;2023-04-19T04:41:07;99795.80;;;9.17;49.09
62592;BME280;48659;41.622;2.276;2023-04-19T04:43:34;99799.00;;;8.68;50.94
62592;BME280;48659;41.622;2.276;2023-04-19T04:46:01;99798.09;;;9.08;49.98
62592;BME280;48659;41.622;2.276;2023-04-19T04:48:28;99800.47;;;9.49;48.68
62592;BME280;48659;41.622;2.276;2023-04-19T04:50:56;99798.62;;;9.79;48.70
62592;BME280;48659;41.622;2.276;2023-04-19T04:53:25;99796.85;;;9.90;47.97
62592;BME280;48659;41.622;2.276;2023-04-19T04:55:54;99798.72;;;9.02;48.15
62592;BME280;48659;41.622;2.276;2023-04-19T04:58:21;99798.72;;;9.94;47.82
62592;BME280;48659;41.622;2.276;2023-04-19T05:00:49;99802.25;;;9.71;47.37
62592;BME280;48659;41.622;2.276;2023-04-19T05:03:16;99800.62;;;10.10;46.96
62592;BME280;48659;41.622;2.276;2023-04-19T05:05:43;99798.30;;;9.78;46.73
62592;BME280;48659;41.622;2.276;2023-04-19T05:08:11;99799.55;;;9.97;47.42
62592;BME280;48659;41.622;2.276;2023-04-19T05:10:39;99798.84;;;9.73;47.30
62592;BME280;48659;41.622;2.276;2023-04-19T05:13:06;99793.08;;;10.32;46.35
62592;BME280;48659;41.622;2.276;2023-04-19T05:15:33;99792.64;;;10.69;46.35
62592;BME280;48659;41.622;2.276;2023-04-19T05:18:01;99791.74;;;10.23;46.40
62592;BME280;48659;41.622;2.276;2023-04-19T05:20:29;99800.06;;;9.62;49.18
62592;BME280;48659;41.622;2.276;2023-04-19T05:22:57;99800.28;;;9.47;48.60
62592;BME280;48659;41.622;2.276;2023-04-19T05:25:24;99801.08;;;10.53;47.38
62592;BME280;48659;41.622;2.276;2023-04-19T05:27:52;99804.37;;;10.07;47.16
62592;BME280;48659;41.622;2.276;2023-04-19T05:30:19;99801.85;;;10.81;46.87
62592;BME280;48659;41.622;2.276;2023-04-19T05:32:47;99811.11;;;9.67;48.14
62592;BME280;48659;41.622;2.276;2023-04-19T05:35:16;99812.79;;;9.98;47.94
62592;BME280;48659;41.622;2.276;2023-04-19T05:37:49;99806.34;;;10.22;46.86
62592;BME280;48659;41.622;2.276;2023-04-19T05:40:16;99814.34;;;11.12;45.96
62592;BME280;48659;41.622;2.276;2023-04-19T05:42:44;99816.53;;;10.69;46.31
62592;BME280;48659;41.622;2.276;2023-04-19T05:45:12;99813.64;;;10.93;46.18
62592;BME280;48659;41.622;2.276;2023-04-19T05:47:39;99818.04;;;11.10;46.41
62592;BME280;48659;41.622;2.276;2023-04-19T05:50:07;99816.98;;;12.11;44.56
62592;BME280;48659;41.622;2.276;2023-04-19T05:52:34;99814.89;;;12.16;44.05
62592;BME280;48659;41.622;2.276;2023-04-19T05:55:02;99815.14;;;11.90;44.13
62592;BME280;48659;41.622;2.276;2023-04-19T05:57:29;99815.13;;;12.63;44.41
62592;BME280;48659;41.622;2.276;2023-04-19T05:59:56;99813.34;;;12.41;44.40
62592;BME280;48659;41.622;2.276;2023-04-19T06:02:23;99811.68;;;12.76;44.32
62592;BME280;48659;41.622;2.276;2023-04-19T06:04:51;99813.92;;;13.24;43.31
62592;BME280;48659;41.622;2.276;2023-04-19T06:07:19;99813.08;;;13.03;43.46
62592;BME280;48659;41.622;2.276;2023-04-19T06:09:49;99811.68;;;12.78;42.39
62592;BME280;48659;41.622;2.276;2023-04-19T06:12:17;99810.39;;;13.34;42.28
62592;BME280;48659;41.622;2.276;2023-04-19T06:14:44;99812.66;;;13.17;42.22
62592;BME280;48659;41.622;2.276;2023-04-19T06:17:12;99813.65;;;13.94;41.77
62592;BME280;48659;41.622;2.276;2023-04-19T06:19:40;99812.50;;;14.63;40.35
62592;BME280;48659;41.622;2.276;2023-04-19T06:22:07;99818.00;;;14.29;41.16
62592;BME280;48659;41.622;2.276;2023-04-19T06:24:35;99815.26;;;14.26;40.87
62592;BME280;48659;41.622;2.276;2023-04-19T06:27:02;99813.77;;;14.48;39.60
62592;BME280;48659;41.622;2.276;2023-04-19T06:29:29;99815.08;;;14.65;39.30
62592;BME280;48659;41.622;2.276;2023-04-19T06:31:56;99807.72;;;15.03;38.53
62592;BME280;48659;41.622;2.276;2023-04-19T06:34:23;99809.79;;;15.28;37.64
62592;BME280;48659;41.622;2.276;2023-04-19T06:36:51;99808.55;;;14.35;37.52
62592;BME280;48659;41.622;2.276;2023-04-19T06:39:19;99807.55;;;15.42;36.93
62592;BME280;48659;41.622;2.276;2023-04-19T06:41:46;99806.92;;;15.52;36.79
62592;BME280;48659;41.622;2.276;2023-04-19T06:44:14;99806.98;;;15.52;37.67
62592;BME280;48659;41.622;2.276;2023-04-19T06:46:42;99807.28;;;16.23;38.16
62592;BME280;48659;41.622;2.276;2023-04-19T06:49:10;99808.09;;;15.81;39.24
62592;BME280;48659;41.622;2.276;2023-04-19T06:51:38;99807.82;;;15.89;39.08
62592;BME280;48659;41.622;2.276;2023-04-19T06:54:05;99806.95;;;15.95;39.13
62592;BME280;48659;41.622;2.276;2023-04-19T06:56:39;99806.83;;;15.80;39.62
62592;BME280;48659;41.622;2.276;2023-04-19T06:59:07;99805.53;;;16.00;39.20
62592;BME280;48659;41.622;2.276;2023-04-19T07:01:34;99801.79;;;16.04;39.44
62592;BME280;48659;41.622;2.276;2023-04-19T07:04:01;99803.76;;;15.98;39.09
62592;BME280;48659;41.622;2.276;2023-04-19T07:06:30;99801.32;;;15.64;39.44
62592;BME280;48659;41.622;2.276;2023-04-19T07:08:57;99795.99;;;16.16;39.16
62592;BME280;48659;41.622;2.276;2023-04-19T07:11:24;99794.21;;;16.19;39.33
62592;BME280;48659;41.622;2.276;2023-04-19T07:13:52;99793.87;;;16.17;39.42
62592;BME280;48659;41.622;2.276;2023-04-19T07:16:19;99790.75;;;15.88;39.72
62592;BME280;48659;41.622;2.276;2023-04-19T07:18:48;99792.19;;;16.44;39.29
62592;BME280;48659;41.622;2.276;2023-04-19T07:21:16;99791.77;;;16.62;39.32
62592;BME280;48659;41.622;2.276;2023-04-19T07:23:48;99793.70;;;15.07;41.05
62592;BME280;48659;41.622;2.276;2023-04-19T07:26:15;99790.57;;;16.29;39.85
62592;BME280;48659;41.622;2.276;2023-04-19T07:28:43;99789.74;;;16.14;39.66
62592;BME280;48659;41.622;2.276;2023-04-19T07:31:14;99793.40;;;16.44;39.59
62592;BME280;48659;41.622;2.276;2023-04-19T07:33:42;99793.91;;;15.99;39.72
62592;BME280;48659;41.622;2.276;2023-04-19T07:36:09;99796.98;;;15.50;41.03
62592;BME280;48659;41.622;2.276;2023-04-19T07:38:37;99799.96;;;14.87;42.30
62592;BME280;48659;41.622;2.276;2023-04-19T07:41:04;99802.12;;;14.23;43.70
62592;BME280;48659;41.622;2.276;2023-04-19T07:43:32;99803.15;;;14.19;44.12
62592;BME280;48659;41.622;2.276;2023-04-19T07:46:00;99802.67;;;15.87;41.38
62592;BME280;48659;41.622;2.276;2023-04-19T07:48:27;99801.31;;;14.62;43.63
62592;BME280;48659;41.622;2.276;2023-04-19T07:50:54;99811.13;;;13.03;46.72
62592;BME280;48659;41.622;2.276;2023-04-19T07:53:21;99806.64;;;14.84;43.22
62592;BME280;48659;41.622;2.276;2023-04-19T07:55:48;99804.22;;;15.95;40.64
62592;BME280;48659;41.622;2.276;2023-04-19T07:58:15;99804.74;;;15.80;40.80
62592;BME280;48659;41.622;2.276;2023-04-19T08:00:43;99803.20;;;15.04;42.01
62592;BME280;48659;41.622;2.276;2023-04-19T08:03:10;99805.70;;;15.77;41.40
62592;BME280;48659;41.622;2.276;2023-04-19T08:05:37;99804.62;;;15.87;40.55
62592;BME280;48659;41.622;2.276;2023-04-19T08:08:05;99805.47;;;16.05;39.97
62592;BME280;48659;41.622;2.276;2023-04-19T08:10:33;99808.62;;;14.92;41.77
62592;BME280;48659;41.622;2.276;2023-04-19T08:13:00;99802.60;;;16.32;38.89
62592;BME280;48659;41.622;2.276;2023-04-19T08:15:28;99800.36;;;16.96;37.83
62592;BME280;48659;41.622;2.276;2023-04-19T08:17:55;99804.72;;;15.99;39.01
62592;BME280;48659;41.622;2.276;2023-04-19T08:20:23;99805.75;;;14.93;41.52
62592;BME280;48659;41.622;2.276;2023-04-19T08:22:51;99805.86;;;14.35;42.21
62592;BME280;48659;41.622;2.276;2023-04-19T08:25:19;99803.76;;;15.57;40.13
62592;BME280;48659;41.622;2.276;2023-04-19T08:27:46;99802.69;;;15.50;38.98
62592;BME280;48659;41.622;2.276;2023-04-19T08:30:13;99807.11;;;15.61;39.49
62592;BME280;48659;41.622;2.276;2023-04-19T08:32:41;99805.21;;;16.17;38.43
62592;BME280;48659;41.622;2.276;2023-04-19T08:35:09;99806.31;;;15.52;38.36
62592;BME280;48659;41.622;2.276;2023-04-19T08:37:37;99803.42;;;16.23;35.52
62592;BME280;48659;41.622;2.276;2023-04-19T08:40:06;99803.39;;;16.13;32.98
62592;BME280;48659;41.622;2.276;2023-04-19T08:42:33;99804.02;;;16.36;31.18
62592;BME280;48659;41.622;2.276;2023-04-19T08:45:01;99804.85;;;15.53;30.35
62592;BME280;48659;41.622;2.276;2023-04-19T08:47:31;99803.07;;;16.54;29.80
62592;BME280;48659;41.622;2.276;2023-04-19T08:49:59;99802.28;;;17.19;28.80
62592;BME280;48659;41.622;2.276;2023-04-19T08:52:27;99798.73;;;17.13;28.03
62592;BME280;48659;41.622;2.276;2023-04-19T08:54:55;99802.15;;;16.17;28.42
62592;BME280;48659;41.622;2.276;2023-04-19T08:57:23;99805.58;;;17.24;27.17
62592;BME280;48659;41.622;2.276;2023-04-19T08:59:51;99801.81;;;16.34;27.95
62592;BME280;48659;41.622;2.276;2023-04-19T09:02:19;99801.74;;;16.97;28.53
62592;BME280;48659;41.622;2.276;2023-04-19T09:04:49;99803.23;;;16.61;27.96
62592;BME280;48659;41.622;2.276;2023-04-19T09:07:27;99803.30;;;17.27;27.65
62592;BME280;48659;41.622;2.276;2023-04-19T09:10:04;99804.00;;;17.77;27.91
62592;BME280;48659;41.622;2.276;2023-04-19T09:12:33;99803.10;;;17.81;28.09
62592;BME280;48659;41.622;2.276;2023-04-19T09:15:01;99798.51;;;16.99;28.76
62592;BME280;48659;41.622;2.276;2023-04-19T09:17:30;99797.63;;;17.56;27.92
62592;BME280;48659;41.622;2.276;2023-04-19T09:19:59;99794.03;;;17.24;28.48
62592;BME280;48659;41.622;2.276;2023-04-19T09:22:26;99795.43;;;17.09;28.61
62592;BME280;48659;41.622;2.276;2023-04-19T09:24:54;99795.56;;;17.06;28.52
62592;BME280;48659;41.622;2.276;2023-04-19T09:27:27;99791.80;;;18.07;27.47
62592;BME280;48659;41.622;2.276;2023-04-19T09:29:55;99795.78;;;17.47;28.91
62592;BME280;48659;41.622;2.276;2023-04-19T09:32:23;99790.92;;;17.84;28.39
62592;BME280;48659;41.622;2.276;2023-04-19T09:34:54;99790.24;;;16.89;28.81
62592;BME280;48659;41.622;2.276;2023-04-19T09:37:23;99786.83;;;17.13;28.73
62592;BME280;48659;41.622;2.276;2023-04-19T09:39:50;99786.55;;;17.00;29.60
62592;BME280;48659;41.622;2.276;2023-04-19T09:42:18;99786.35;;;17.51;29.18
62592;BME280;48659;41.622;2.276;2023-04-19T09:44:55;99780.96;;;17.32;28.73
62592;BME280;48659;41.622;2.276;2023-04-19T09:47:23;99780.76;;;17.77;28.60
62592;BME280;48659;41.622;2.276;2023-04-19T09:50:08;99769.66;;;16.98;29.58
62592;BME280;48659;41.622;2.276;2023-04-19T09:52:36;99772.08;;;17.67;28.99
62592;BME280;48659;41.622;2.276;2023-04-19T09:55:05;99766.53;;;18.32;27.99
62592;BME280;48659;41.622;2.276;2023-04-19T09:57:33;99758.50;;;18.66;27.49
62592;BME280;48659;41.622;2.276;2023-04-19T10:00:01;99766.75;;;17.26;28.83
62592;BME280;48659;41.622;2.276;2023-04-19T10:02:30;99759.26;;;18.50;27.99
62592;BME280;48659;41.622;2.276;2023-04-19T10:04:59;99750.33;;;17.66;28.07
62592;BME280;48659;41.622;2.276;2023-04-19T10:07:27;99743.37;;;18.41;27.81
62592;BME280;48659;41.622;2.276;2023-04-19T10:09:59;99746.04;;;17.85;28.03
62592;BME280;48659;41.622;2.276;2023-04-19T10:12:27;99745.40;;;19.17;27.17
62592;BME280;48659;41.622;2.276;2023-04-19T10:14:55;99736.25;;;18.96;27.30
62592;BME280;48659;41.622;2.276;2023-04-19T10:17:24;99735.98;;;19.82;26.16
62592;BME280;48659;41.622;2.276;2023-04-19T10:19:58;99731.88;;;19.33;27.13
62592;BME280;48659;41.622;2.276;2023-04-19T10:22:28;99728.40;;;19.82;26.57
62592;BME280;48659;41.622;2.276;2023-04-19T10:25:12;99727.72;;;19.11;27.10
62592;BME280;48659;41.622;2.276;2023-04-19T10:27:48;99714.50;;;18.34;27.84
62592;BME280;48659;41.622;2.276;2023-04-19T10:30:17;99719.15;;;18.51;28.08
62592;BME280;48659;41.622;2.276;2023-04-19T10:32:53;99725.68;;;17.59;28.01
62592;BME280;48659;41.622;2.276;2023-04-19T10:35:22;99725.64;;;17.79;28.26
62592;BME280;48659;41.622;2.276;2023-04-19T10:38:07;99717.92;;;17.12;29.61
62592;BME280;48659;41.622;2.276;2023-04-19T10:40:59;99719.63;;;17.65;29.05
62592;BME280;48659;41.622;2.276;2023-04-19T10:43:28;99707.52;;;18.17;28.42
62592;BME280;48659;41.622;2.276;2023-04-19T10:45:59;99702.79;;;18.64;27.42
62592;BME280;48659;41.622;2.276;2023-04-19T10:48:32;99701.18;;;19.20;27.21
62592;BME280;48659;41.622;2.276;2023-04-19T10:51:01;99699.30;;;19.46;26.90
62592;BME280;48659;41.622;2.276;2023-04-19T10:53:47;99697.03;;;19.08;26.89
62592;BME280;48659;41.622;2.276;2023-04-19T10:56:16;99691.42;;;19.26;26.73
62592;BME280;48659;41.622;2.276;2023-04-19T10:59:16;99686.51;;;19.55;25.92
62592;BME280;48659;41.622;2.276;2023-04-19T11:01:51;99680.31;;;19.38;25.75
62592;BME280;48659;41.622;2.276;2023-04-19T11:04:21;99684.85;;;19.15;26.14
62592;BME280;48659;41.622;2.276;2023-04-19T11:06:59;99684.16;;;19.21;25.95
62592;BME280;48659;41.622;2.276;2023-04-19T11:09:28;99682.74;;;18.29;26.54
62592;BME280;48659;41.622;2.276;2023-04-19T11:11:58;99680.90;;;19.53;25.71
62592;BME280;48659;41.622;2.276;2023-04-19T11:14:29;99684.16;;;19.28;26.28
62592;BME280;48659;41.622;2.276;2023-04-19T11:16:58;99682.08;;;19.57;25.40
62592;BME280;48659;41.622;2.276;2023-04-19T11:19:25;99679.83;;;19.34;25.70
62592;BME280;48659;41.622;2.276;2023-04-19T11:21:58;99685.26;;;17.30;28.23
62592;BME280;48659;41.622;2.276;2023-04-19T11:24:26;99678.28;;;18.31;27.26
62592;BME280;48659;41.622;2.276;2023-04-19T11:26:55;99677.58;;;17.63;27.31
62592;BME280;48659;41.622;2.276;2023-04-19T11:29:23;99665.33;;;18.22;27.06
62592;BME280;48659;41.622;2.276;2023-04-19T11:31:50;99661.48;;;18.03;27.37
62592;BME280;48659;41.622;2.276;2023-04-19T11:34:22;99660.32;;;18.24;26.92
62592;BME280;48659;41.622;2.276;2023-04-19T11:36:50;99660.98;;;17.57;27.50
62592;BME280;48659;41.622;2.276;2023-04-19T11:39:17;99654.56;;;17.88;26.83
62592;BME280;48659;41.622;2.276;2023-04-19T11:41:46;99657.80;;;17.32;27.99
62592;BME280;48659;41.622;2.276;2023-04-19T11:44:14;99654.78;;;18.56;26.69
62592;BME280;48659;41.622;2.276;2023-04-19T11:47:03;99650.17;;;18.14;26.48
62592;BME280;48659;41.622;2.276;2023-04-19T11:49:32;99640.70;;;19.63;24.90
62592;BME280;48659;41.622;2.276;2023-04-19T11:52:01;99642.99;;;19.44;25.12
62592;BME280;48659;41.622;2.276;2023-04-19T11:54:32;99642.33;;;17.28;27.69
62592;BME280;48659;41.622;2.276;2023-04-19T11:57:02;99640.02;;;17.39;28.08
62592;BME280;48659;41.622;2.276;2023-04-19T11:59:30;99643.18;;;18.08;27.23
62592;BME280;48659;41.622;2.276;2023-04-19T12:02:07;99641.87;;;19.27;25.76
62592;BME280;48659;41.622;2.276;2023-04-19T12:04:35;99636.95;;;17.96;26.83
62592;BME280;48659;41.622;2.276;2023-04-19T12:07:04;99638.74;;;18.34;27.14
62592;BME280;48659;41.622;2.276;2023-04-19T12:09:33;99638.99;;;18.17;27.05
62592;BME280;48659;41.622;2.276;2023-04-19T12:12:01;99631.80;;;19.63;25.11
62592;BME280;48659;41.622;2.276;2023-04-19T12:14:30;99632.60;;;18.86;25.70
62592;BME280;48659;41.622;2.276;2023-04-19T12:17:08;99631.33;;;18.78;25.45
62592;BME280;48659;41.622;2.276;2023-04-19T12:19:36;99636.92;;;17.76;27.52
62592;BME280;48659;41.622;2.276;2023-04-19T12:22:08;99638.77;;;18.92;26.44
62592;BME280;48659;41.622;2.276;2023-04-19T12:24:36;99633.28;;;17.81;27.45
62592;BME280;48659;41.622;2.276;2023-04-19T12:27:05;99620.92;;;19.97;25.77
62592;BME280;48659;41.622;2.276;2023-04-19T12:29:33;99614.33;;;19.93;25.37
62592;BME280;48659;41.622;2.276;2023-04-19T12:32:01;99620.01;;;18.08;27.49
62592;BME280;48659;41.622;2.276;2023-04-19T12:34:29;99610.05;;;19.03;26.36
62592;BME280;48659;41.622;2.276;2023-04-19T12:36:57;99618.74;;;19.00;26.78
62592;BME280;48659;41.622;2.276;2023-04-19T12:39:24;99611.87;;;19.98;25.42
62592;BME280;48659;41.622;2.276;2023-04-19T12:41:52;99610.84;;;19.12;26.26
62592;BME280;48659;41.622;2.276;2023-04-19T12:44:18;99610.78;;;19.73;26.07
62592;BME280;48659;41.622;2.276;2023-04-19T12:46:46;99614.47;;;18.58;27.12
62592;BME280;48659;41.622;2.276;2023-04-19T12:49:13;99615.36;;;19.34;26.45
62592;BME280;48659;41.622;2.276;2023-04-19T12:51:41;99608.31;;;18.50;27.84
62592;BME280;48659;41.622;2.276;2023-04-19T12:54:09;99601.38;;;18.35;28.12
62592;BME280;48659;41.622;2.276;2023-04-19T12:56:36;99602.82;;;18.85;28.06
62592;BME280;48659;41.622;2.276;2023-04-19T12:59:03;99602.18;;;18.26;27.83
62592;BME280;48659;41.622;2.276;2023-04-19T13:01:32;99593.31;;;17.85;28.93
62592;BME280;48659;41.622;2.276;2023-04-19T13:03:59;99595.43;;;19.17;27.06
62592;BME280;48659;41.622;2.276;2023-04-19T13:06:27;99592.11;;;17.40;29.32
62592;BME280;48659;41.622;2.276;2023-04-19T13:08:54;99590.39;;;17.87;28.79
62592;BME280;48659;41.622;2.276;2023-04-19T13:11:22;99590.01;;;18.24;28.70
62592;BME280;48659;41.622;2.276;2023-04-19T13:13:50;99586.79;;;18.39;28.30